sensor_id;sensor_type;location;lat;lon;timestamp;pressure;altitude;pressure_sealevel;temperature;humidity
9421;BME280;4749;51.398;5.466;2024-02-26T00:01:05;99613.19;;;7.59;100.00
9421;BME280;4749;51.398;5.466;2024-02-26T00:03:32;99614.97;;;7.57;100.00
9421;BME280;4749;51.398;5.466;2024-02-26T00:06:02;99612.34;;;7.57;100.00
9421;BME280;4749;51.398;5.466;2024-02-26T00:08:30;99611.44;;;7.56;100.00
9421;BME280;4749;51.398;5.466;2024-02-26T00:10:57;99616.66;;;7.56;100.00
9421;BME280;4749;51.398;5.466;2024-02-26T00:13:24;99611.44;;;7.55;100.00
9421;BME280;4749;51.398;5.466;2024-02-26T00:15:51;99616.69;;;7.55;100.00
9421;BME280;4749;51.398;5.466;2024-02-26T00:18:18;99608.81;;;7.56;100.00
9421;BME280;4749;51.398;5.466;2024-02-26T00:20:45;99605.34;;;7.54;100.00
9421;BME280;4749;51.398;5.466;2024-02-26T00:23:15;99604.50;;;7.54;100.00
9421;BME280;4749;51.398;5.466;2024-02-26T00:25:43;99611.47;;;7.53;100.00
9421;BME280;4749;51.398;5.466;2024-02-26T00:28:10;99609.72;;;7.52;100.00
9421;BME280;4749;51.398;5.466;2024-02-26T00:30:39;99603.66;;;7.49;100.00
9421;BME280;4749;51.398;5.466;2024-02-26T00:33:06;99602.78;;;7.47;100.00
9421;BME280;4749;51.398;5.466;2024-02-26T00:35:34;99603.66;;;7.44;100.00
9421;BME280;4749;51.398;5.466;2024-02-26T00:38:01;99601.06;;;7.41;100.00
9421;BME280;4749;51.398;5.466;2024-02-26T00:40:30;99604.56;;;7.42;100.00
9421;BME280;4749;51.398;5.466;2024-02-26T00:42:57;99594.97;;;7.41;100.00
9421;BME280;4749;51.398;5.466;2024-02-26T00:45:24;99592.34;;;7.39;100.00
9421;BME280;4749;51.398;5.466;2024-02-26T00:47:51;99593.22;;;7.38;100.00
9421;BME280;4749;51.398;5.466;2024-02-26T00:50:18;99590.63;;;7.37;100.00
9421;BME280;4749;51.398;5.466;2024-02-26T00:52:45;99593.22;;;7.37;100.00
9421;BME280;4749;51.398;5.466;2024-02-26T00:55:13;99582.78;;;7.35;100.00
9421;BME280;4749;51.398;5.466;2024-02-26T00:57:40;99584.56;;;7.33;100.00
9421;BME280;4749;51.398;5.466;2024-02-26T01:00:08;99592.41;;;7.31;100.00
9421;BME280;4749;51.398;5.466;2024-02-26T01:02:38;99584.56;;;7.31;100.00
9421;BME280;4749;51.398;5.466;2024-02-26T01:05:06;99588.03;;;7.30;100.00
9421;BME280;4749;51.398;5.466;2024-02-26T01:07:33;99594.16;;;7.28;100.00
9421;BME280;4749;51.398;5.466;2024-02-26T01:10:04;99592.41;;;7.25;100.00
9421;BME280;4749;51.398;5.466;2024-02-26T01:12:33;99599.41;;;7.23;100.00
9421;BME280;4749;51.398;5.466;2024-02-26T01:15:02;99596.78;;;7.22;100.00
9421;BME280;4749;51.398;5.466;2024-02-26T01:17:30;99599.41;;;7.23;100.00
9421;BME280;4749;51.398;5.466;2024-02-26T01:19:57;99599.38;;;7.22;100.00
9421;BME280;4749;51.398;5.466;2024-02-26T01:22:24;99608.97;;;7.21;100.00
9421;BME280;4749;51.398;5.466;2024-02-26T01:24:51;99602.03;;;7.19;100.00
9421;BME280;4749;51.398;5.466;2024-02-26T01:27:19;99608.13;;;7.18;100.00
9421;BME280;4749;51.398;5.466;2024-02-26T01:29:46;99617.72;;;7.16;100.00
9421;BME280;4749;51.398;5.466;2024-02-26T01:32:13;99617.69;;;7.14;100.00
9421;BME280;4749;51.398;5.466;2024-02-26T01:34:40;99616.00;;;7.09;100.00
9421;BME280;4749;51.398;5.466;2024-02-26T01:37:07;99615.13;;;7.07;100.00
9421;BME280;4749;51.398;5.466;2024-02-26T01:39:34;99617.75;;;7.03;100.00
9421;BME280;4749;51.398;5.466;2024-02-26T01:42:02;99625.59;;;7.02;100.00
9421;BME280;4749;51.398;5.466;2024-02-26T01:44:29;99619.50;;;7.00;100.00
9421;BME280;4749;51.398;5.466;2024-02-26T01:46:56;99625.59;;;6.99;100.00
9421;BME280;4749;51.398;5.466;2024-02-26T01:49:23;99620.38;;;6.96;100.00
9421;BME280;4749;51.398;5.466;2024-02-26T01:51:51;99620.38;;;6.94;100.00
9421;BME280;4749;51.398;5.466;2024-02-26T01:54:18;99624.75;;;6.92;100.00
9421;BME280;4749;51.398;5.466;2024-02-26T01:56:45;99627.38;;;6.91;100.00
9421;BME280;4749;51.398;5.466;2024-02-26T01:59:13;99629.97;;;6.91;100.00
9421;BME280;4749;51.398;5.466;2024-02-26T02:01:44;99629.09;;;6.89;100.00
9421;BME280;4749;51.398;5.466;2024-02-26T02:04:14;99634.31;;;6.87;100.00
9421;BME280;4749;51.398;5.466;2024-02-26T02:06:45;99628.25;;;6.84;100.00
9421;BME280;4749;51.398;5.466;2024-02-26T02:09:12;99626.50;;;6.83;100.00
9421;BME280;4749;51.398;5.466;2024-02-26T02:11:39;99629.13;;;6.83;100.00
9421;BME280;4749;51.398;5.466;2024-02-26T02:14:07;99616.03;;;6.80;100.00
9421;BME280;4749;51.398;5.466;2024-02-26T02:16:34;99613.44;;;6.76;100.00
9421;BME280;4749;51.398;5.466;2024-02-26T02:19:01;99610.84;;;6.75;100.00
9421;BME280;4749;51.398;5.466;2024-02-26T02:21:28;99613.44;;;6.72;100.00
9421;BME280;4749;51.398;5.466;2024-02-26T02:23:55;99615.19;;;6.71;100.00
9421;BME280;4749;51.398;5.466;2024-02-26T02:26:22;99613.44;;;6.69;100.00
9421;BME280;4749;51.398;5.466;2024-02-26T02:28:50;99613.47;;;6.67;100.00
9421;BME280;4749;51.398;5.466;2024-02-26T02:31:17;99610.00;;;6.65;100.00
9421;BME280;4749;51.398;5.466;2024-02-26T02:33:44;99619.56;;;6.65;100.00
9421;BME280;4749;51.398;5.466;2024-02-26T02:36:12;99620.44;;;6.65;100.00
9421;BME280;4749;51.398;5.466;2024-02-26T02:38:50;99618.69;;;6.63;100.00
9421;BME280;4749;51.398;5.466;2024-02-26T02:41:18;99616.09;;;6.64;100.00
9421;BME280;4749;51.398;5.466;2024-02-26T02:43:45;99618.69;;;6.64;100.00
9421;BME280;4749;51.398;5.466;2024-02-26T02:46:13;99618.69;;;6.64;100.00
9421;BME280;4749;51.398;5.466;2024-02-26T02:48:42;99618.69;;;6.64;100.00
9421;BME280;4749;51.398;5.466;2024-02-26T02:51:10;99609.97;;;6.61;100.00
9421;BME280;4749;51.398;5.466;2024-02-26T02:53:38;99619.56;;;6.60;100.00
9421;BME280;4749;51.398;5.466;2024-02-26T02:56:05;99615.19;;;6.61;100.00
9421;BME280;4749;51.398;5.466;2024-02-26T02:58:32;99623.03;;;6.59;100.00
9421;BME280;4749;51.398;5.466;2024-02-26T03:00:59;99614.31;;;6.56;100.00
9421;BME280;4749;51.398;5.466;2024-02-26T03:03:28;99622.16;;;6.54;100.00
9421;BME280;4749;51.398;5.466;2024-02-26T03:05:56;99628.25;;;6.53;100.00
9421;BME280;4749;51.398;5.466;2024-02-26T03:08:24;99618.69;;;6.54;100.00
9421;BME280;4749;51.398;5.466;2024-02-26T03:10:53;99628.28;;;6.52;100.00
9421;BME280;4749;51.398;5.466;2024-02-26T03:13:21;99619.56;;;6.53;100.00
9421;BME280;4749;51.398;5.466;2024-02-26T03:15:48;99629.13;;;6.54;100.00
9421;BME280;4749;51.398;5.466;2024-02-26T03:18:15;99636.09;;;6.53;100.00
9421;BME280;4749;51.398;5.466;2024-02-26T03:20:42;99631.75;;;6.52;100.00
9421;BME280;4749;51.398;5.466;2024-02-26T03:23:09;99629.13;;;6.52;100.00
9421;BME280;4749;51.398;5.466;2024-02-26T03:25:39;99631.75;;;6.52;100.00
9421;BME280;4749;51.398;5.466;2024-02-26T03:28:06;99639.59;;;6.52;100.00
9421;BME280;4749;51.398;5.466;2024-02-26T03:30:34;99647.41;;;6.52;100.00
9421;BME280;4749;51.398;5.466;2024-02-26T03:33:01;99634.38;;;6.49;100.00
9421;BME280;4749;51.398;5.466;2024-02-26T03:35:29;99632.63;;;6.48;100.00
9421;BME280;4749;51.398;5.466;2024-02-26T03:37:56;99635.25;;;6.48;100.00
9421;BME280;4749;51.398;5.466;2024-02-26T03:40:23;99641.31;;;6.47;100.00
9421;BME280;4749;51.398;5.466;2024-02-26T03:42:51;99640.47;;;6.48;100.00
9421;BME280;4749;51.398;5.466;2024-02-26T03:45:20;99641.31;;;6.47;100.00
9421;BME280;4749;51.398;5.466;2024-02-26T03:47:48;99634.38;;;6.47;100.00
9421;BME280;4749;51.398;5.466;2024-02-26T03:50:15;99636.97;;;6.47;100.00
9421;BME280;4749;51.398;5.466;2024-02-26T03:52:43;99640.44;;;6.46;100.00
9421;BME280;4749;51.398;5.466;2024-02-26T03:55:10;99642.19;;;6.46;100.00
9421;BME280;4749;51.398;5.466;2024-02-26T03:57:37;99634.34;;;6.44;100.00
9421;BME280;4749;51.398;5.466;2024-02-26T04:00:05;99639.56;;;6.44;100.00
9421;BME280;4749;51.398;5.466;2024-02-26T04:02:33;99632.63;;;6.43;100.00
9421;BME280;4749;51.398;5.466;2024-02-26T04:05:00;99639.59;;;6.43;100.00
9421;BME280;4749;51.398;5.466;2024-02-26T04:07:28;99640.47;;;6.42;100.00
9421;BME280;4749;51.398;5.466;2024-02-26T04:09:55;99646.56;;;6.39;100.00
9421;BME280;4749;51.398;5.466;2024-02-26T04:12:22;99647.44;;;6.40;100.00
9421;BME280;4749;51.398;5.466;2024-02-26T04:14:49;99644.78;;;6.38;100.00
9421;BME280;4749;51.398;5.466;2024-02-26T04:17:16;99655.25;;;6.40;100.00
9421;BME280;4749;51.398;5.466;2024-02-26T04:19:43;99656.09;;;6.37;100.00
9421;BME280;4749;51.398;5.466;2024-02-26T04:22:11;99655.25;;;6.35;100.00
9421;BME280;4749;51.398;5.466;2024-02-26T04:24:38;99655.25;;;6.34;100.00
9421;BME280;4749;51.398;5.466;2024-02-26T04:27:05;99652.63;;;6.34;100.00
9421;BME280;4749;51.398;5.466;2024-02-26T04:29:32;99652.63;;;6.34;100.00
9421;BME280;4749;51.398;5.466;2024-02-26T04:31:59;99656.13;;;6.31;100.00
9421;BME280;4749;51.398;5.466;2024-02-26T04:34:26;99659.56;;;6.30;100.00
9421;BME280;4749;51.398;5.466;2024-02-26T04:36:54;99663.91;;;6.30;100.00
9421;BME280;4749;51.398;5.466;2024-02-26T04:39:21;99670.88;;;6.28;100.00
9421;BME280;4749;51.398;5.466;2024-02-26T04:41:48;99667.41;;;6.26;100.00
9421;BME280;4749;51.398;5.466;2024-02-26T04:44:15;99664.81;;;6.24;100.00
9421;BME280;4749;51.398;5.466;2024-02-26T04:46:42;99672.63;;;6.23;100.00
9421;BME280;4749;51.398;5.466;2024-02-26T04:49:09;99674.34;;;6.22;100.00
9421;BME280;4749;51.398;5.466;2024-02-26T04:51:37;99670.88;;;6.20;100.00
9421;BME280;4749;51.398;5.466;2024-02-26T04:54:04;99677.84;;;6.19;100.00
9421;BME280;4749;51.398;5.466;2024-02-26T04:56:31;99680.44;;;6.18;100.00
9421;BME280;4749;51.398;5.466;2024-02-26T04:58:58;99672.63;;;6.18;100.00
9421;BME280;4749;51.398;5.466;2024-02-26T05:01:25;99669.13;;;6.16;100.00
9421;BME280;4749;51.398;5.466;2024-02-26T05:03:52;99665.66;;;6.15;100.00
9421;BME280;4749;51.398;5.466;2024-02-26T05:06:19;99670.88;;;6.14;100.00
9421;BME280;4749;51.398;5.466;2024-02-26T05:08:47;99679.56;;;6.13;100.00
9421;BME280;4749;51.398;5.466;2024-02-26T05:11:14;99679.59;;;6.14;100.00
9421;BME280;4749;51.398;5.466;2024-02-26T05:13:41;99686.50;;;6.12;100.00
9421;BME280;4749;51.398;5.466;2024-02-26T05:16:08;99683.91;;;6.11;100.00
9421;BME280;4749;51.398;5.466;2024-02-26T05:18:35;99682.16;;;6.10;100.00
9421;BME280;4749;51.398;5.466;2024-02-26T05:21:03;99686.53;;;6.06;100.00
9421;BME280;4749;51.398;5.466;2024-02-26T05:23:30;99695.19;;;6.05;100.00
9421;BME280;4749;51.398;5.466;2024-02-26T05:25:57;99689.97;;;6.04;100.00
9421;BME280;4749;51.398;5.466;2024-02-26T05:28:24;99689.97;;;6.02;100.00
9421;BME280;4749;51.398;5.466;2024-02-26T05:30:51;99691.72;;;6.00;100.00
9421;BME280;4749;51.398;5.466;2024-02-26T05:33:18;99701.28;;;6.04;100.00
9421;BME280;4749;51.398;5.466;2024-02-26T05:35:46;99709.09;;;6.04;100.00
9421;BME280;4749;51.398;5.466;2024-02-26T05:38:13;99706.50;;;6.04;100.00
9421;BME280;4749;51.398;5.466;2024-02-26T05:40:40;99707.38;;;6.05;100.00
9421;BME280;4749;51.398;5.466;2024-02-26T05:43:07;99717.81;;;6.03;100.00
9421;BME280;4749;51.398;5.466;2024-02-26T05:45:34;99718.66;;;6.04;100.00
9421;BME280;4749;51.398;5.466;2024-02-26T05:48:01;99723.88;;;6.04;100.00
9421;BME280;4749;51.398;5.466;2024-02-26T05:50:29;99727.41;;;6.06;100.00
9421;BME280;4749;51.398;5.466;2024-02-26T05:52:56;99741.28;;;6.05;100.00
9421;BME280;4749;51.398;5.466;2024-02-26T05:55:23;99741.28;;;6.05;100.00
9421;BME280;4749;51.398;5.466;2024-02-26T05:57:50;99756.06;;;6.03;100.00
9421;BME280;4749;51.398;5.466;2024-02-26T06:00:18;99744.75;;;6.04;100.00
9421;BME280;4749;51.398;5.466;2024-02-26T06:02:45;99741.28;;;6.05;100.00
9421;BME280;4749;51.398;5.466;2024-02-26T06:05:12;99744.75;;;6.04;100.00
9421;BME280;4749;51.398;5.466;2024-02-26T06:07:39;99741.28;;;6.03;100.00
9421;BME280;4749;51.398;5.466;2024-02-26T06:10:07;99751.72;;;6.03;100.00
9421;BME280;4749;51.398;5.466;2024-02-26T06:12:37;99756.94;;;6.05;100.00
9421;BME280;4749;51.398;5.466;2024-02-26T06:15:05;99762.16;;;6.03;100.00
9421;BME280;4749;51.398;5.466;2024-02-26T06:17:32;99758.69;;;6.03;100.00
9421;BME280;4749;51.398;5.466;2024-02-26T06:19:59;99759.53;;;6.03;100.00
9421;BME280;4749;51.398;5.466;2024-02-26T06:22:27;99761.31;;;6.06;100.00
9421;BME280;4749;51.398;5.466;2024-02-26T06:24:54;99756.97;;;6.06;100.00
9421;BME280;4749;51.398;5.466;2024-02-26T06:27:21;99770.84;;;6.05;100.00
9421;BME280;4749;51.398;5.466;2024-02-26T06:29:49;99783.03;;;6.05;100.00
9421;BME280;4749;51.398;5.466;2024-02-26T06:32:16;99769.13;;;6.03;100.00
9421;BME280;4749;51.398;5.466;2024-02-26T06:34:43;99777.81;;;6.02;100.00
9421;BME280;4749;51.398;5.466;2024-02-26T06:37:10;99779.56;;;6.00;100.00
9421;BME280;4749;51.398;5.466;2024-02-26T06:39:37;99781.28;;;6.01;100.00
9421;BME280;4749;51.398;5.466;2024-02-26T06:42:05;99777.81;;;6.00;100.00
9421;BME280;4749;51.398;5.466;2024-02-26T06:44:33;99781.28;;;5.99;100.00
9421;BME280;4749;51.398;5.466;2024-02-26T06:47:01;99788.25;;;6.00;100.00
9421;BME280;4749;51.398;5.466;2024-02-26T06:49:29;99780.41;;;6.00;100.00
9421;BME280;4749;51.398;5.466;2024-02-26T06:51:57;99794.34;;;6.01;100.00
9421;BME280;4749;51.398;5.466;2024-02-26T06:54:24;99801.28;;;6.00;100.00
9421;BME280;4749;51.398;5.466;2024-02-26T06:56:53;99792.56;;;5.97;100.00
9421;BME280;4749;51.398;5.466;2024-02-26T06:59:20;99797.81;;;5.98;100.00
9421;BME280;4749;51.398;5.466;2024-02-26T07:01:47;99805.63;;;6.01;100.00
9421;BME280;4749;51.398;5.466;2024-02-26T07:04:14;99808.25;;;6.01;100.00
9421;BME280;4749;51.398;5.466;2024-02-26T07:06:41;99814.34;;;6.05;100.00
9421;BME280;4749;51.398;5.466;2024-02-26T07:09:10;99810.84;;;6.03;100.00
9421;BME280;4749;51.398;5.466;2024-02-26T07:11:39;99818.69;;;6.01;100.00
9421;BME280;4749;51.398;5.466;2024-02-26T07:14:12;99828.25;;;6.04;100.00
9421;BME280;4749;51.398;5.466;2024-02-26T07:16:39;99828.25;;;6.04;100.00
9421;BME280;4749;51.398;5.466;2024-02-26T07:19:06;99830.00;;;6.05;100.00
9421;BME280;4749;51.398;5.466;2024-02-26T07:21:34;99840.47;;;6.08;100.00
9421;BME280;4749;51.398;5.466;2024-02-26T07:24:02;99833.50;;;6.08;100.00
9421;BME280;4749;51.398;5.466;2024-02-26T07:26:29;99843.94;;;6.11;100.00
9421;BME280;4749;51.398;5.466;2024-02-26T07:28:57;99866.59;;;6.14;100.00
9421;BME280;4749;51.398;5.466;2024-02-26T07:31:25;99857.00;;;6.13;100.00
9421;BME280;4749;51.398;5.466;2024-02-26T07:33:52;99866.59;;;6.14;100.00
9421;BME280;4749;51.398;5.466;2024-02-26T07:36:19;99869.22;;;6.14;100.00
9421;BME280;4749;51.398;5.466;2024-02-26T07:38:46;99883.09;;;6.13;100.00
9421;BME280;4749;51.398;5.466;2024-02-26T07:41:16;99881.34;;;6.13;100.00
9421;BME280;4749;51.398;5.466;2024-02-26T07:43:43;99885.69;;;6.11;100.00
9421;BME280;4749;51.398;5.466;2024-02-26T07:46:12;99885.69;;;6.10;100.00
9421;BME280;4749;51.398;5.466;2024-02-26T07:48:39;99881.34;;;6.09;100.00
9421;BME280;4749;51.398;5.466;2024-02-26T07:51:08;99877.00;;;6.12;100.00
9421;BME280;4749;51.398;5.466;2024-02-26T07:53:37;99880.47;;;6.11;100.00
9421;BME280;4749;51.398;5.466;2024-02-26T07:56:05;99895.28;;;6.12;100.00
9421;BME280;4749;51.398;5.466;2024-02-26T07:58:35;99894.41;;;6.13;100.00
9421;BME280;4749;51.398;5.466;2024-02-26T08:01:02;99896.13;;;6.13;100.00
9421;BME280;4749;51.398;5.466;2024-02-26T08:03:30;99890.97;;;6.14;100.00
9421;BME280;4749;51.398;5.466;2024-02-26T08:05:57;99894.44;;;6.16;100.00
9421;BME280;4749;51.398;5.466;2024-02-26T08:08:24;99893.56;;;6.17;100.00
9421;BME280;4749;51.398;5.466;2024-02-26T08:10:51;99899.66;;;6.21;100.00
9421;BME280;4749;51.398;5.466;2024-02-26T08:13:18;99900.56;;;6.23;100.00
9421;BME280;4749;51.398;5.466;2024-02-26T08:15:45;99907.53;;;6.26;100.00
9421;BME280;4749;51.398;5.466;2024-02-26T08:18:12;99899.72;;;6.26;100.00
9421;BME280;4749;51.398;5.466;2024-02-26T08:20:39;99915.38;;;6.27;100.00
9421;BME280;4749;51.398;5.466;2024-02-26T08:23:06;99915.38;;;6.27;100.00
9421;BME280;4749;51.398;5.466;2024-02-26T08:25:34;99928.41;;;6.26;100.00
9421;BME280;4749;51.398;5.466;2024-02-26T08:28:01;99927.53;;;6.25;100.00
9421;BME280;4749;51.398;5.466;2024-02-26T08:30:28;99924.94;;;6.30;100.00
9421;BME280;4749;51.398;5.466;2024-02-26T08:32:55;99924.97;;;6.34;100.00
9421;BME280;4749;51.398;5.466;2024-02-26T08:35:22;99934.56;;;6.35;100.00
9421;BME280;4749;51.398;5.466;2024-02-26T08:37:49;99934.56;;;6.38;100.00
9421;BME280;4749;51.398;5.466;2024-02-26T08:40:17;99933.72;;;6.39;100.00
9421;BME280;4749;51.398;5.466;2024-02-26T08:42:46;99931.97;;;6.40;100.00
9421;BME280;4749;51.398;5.466;2024-02-26T08:45:13;99938.03;;;6.39;100.00
9421;BME280;4749;51.398;5.466;2024-02-26T08:47:40;99947.63;;;6.38;100.00
9421;BME280;4749;51.398;5.466;2024-02-26T08:50:08;99946.75;;;6.38;100.00
9421;BME280;4749;51.398;5.466;2024-02-26T08:52:36;99945.88;;;6.37;100.00
9421;BME280;4749;51.398;5.466;2024-02-26T08:55:04;99958.09;;;6.40;100.00
9421;BME280;4749;51.398;5.466;2024-02-26T08:57:32;99959.84;;;6.39;100.00
9421;BME280;4749;51.398;5.466;2024-02-26T09:00:01;99959.84;;;6.39;100.00
9421;BME280;4749;51.398;5.466;2024-02-26T09:02:28;99963.31;;;6.40;100.00
9421;BME280;4749;51.398;5.466;2024-02-26T09:04:56;99964.19;;;6.40;100.00
9421;BME280;4749;51.398;5.466;2024-02-26T09:07:24;99957.19;;;6.38;100.00
9421;BME280;4749;51.398;5.466;2024-02-26T09:09:51;99969.34;;;6.34;100.00
9421;BME280;4749;51.398;5.466;2024-02-26T09:12:18;99972.84;;;6.35;100.00
9421;BME280;4749;51.398;5.466;2024-02-26T09:14:46;99978.06;;;6.36;100.00
9421;BME280;4749;51.398;5.466;2024-02-26T09:17:13;99981.56;;;6.38;100.00
9421;BME280;4749;51.398;5.466;2024-02-26T09:19:40;99975.50;;;6.39;100.00
9421;BME280;4749;51.398;5.466;2024-02-26T09:22:09;99983.34;;;6.42;100.00
9421;BME280;4749;51.398;5.466;2024-02-26T09:24:36;99980.72;;;6.41;100.00
9421;BME280;4749;51.398;5.466;2024-02-26T09:27:03;99990.28;;;6.42;100.00
9421;BME280;4749;51.398;5.466;2024-02-26T09:29:31;99992.91;;;6.43;100.00
9421;BME280;4749;51.398;5.466;2024-02-26T09:31:58;100006.84;;;6.42;100.00
9421;BME280;4749;51.398;5.466;2024-02-26T09:34:25;99985.06;;;6.43;100.00
9421;BME280;4749;51.398;5.466;2024-02-26T09:36:52;100007.69;;;6.43;100.00
9421;BME280;4749;51.398;5.466;2024-02-26T09:39:28;100007.72;;;6.44;100.00
9421;BME280;4749;51.398;5.466;2024-02-26T09:41:55;100006.84;;;6.44;100.00
9421;BME280;4749;51.398;5.466;2024-02-26T09:44:25;100012.06;;;6.45;100.00
9421;BME280;4749;51.398;5.466;2024-02-26T09:46:54;100006.84;;;6.45;100.00
9421;BME280;4749;51.398;5.466;2024-02-26T09:49:23;100022.53;;;6.48;100.00
9421;BME280;4749;51.398;5.466;2024-02-26T09:51:52;100020.81;;;6.47;100.00
9421;BME280;4749;51.398;5.466;2024-02-26T09:54:20;100032.13;;;6.48;100.00
9421;BME280;4749;51.398;5.466;2024-02-26T09:56:50;100028.59;;;6.46;100.00
9421;BME280;4749;51.398;5.466;2024-02-26T09:59:38;100032.13;;;6.48;100.00
9421;BME280;4749;51.398;5.466;2024-02-26T10:02:14;100039.09;;;6.49;100.00
9421;BME280;4749;51.398;5.466;2024-02-26T10:04:42;100049.53;;;6.51;100.00
9421;BME280;4749;51.398;5.466;2024-02-26T10:07:16;100045.19;;;6.51;100.00
9421;BME280;4749;51.398;5.466;2024-02-26T10:09:44;100051.28;;;6.55;100.00
9421;BME280;4749;51.398;5.466;2024-02-26T10:12:12;100059.16;;;6.56;100.00
9421;BME280;4749;51.398;5.466;2024-02-26T10:14:40;100053.88;;;6.53;100.00
9421;BME280;4749;51.398;5.466;2024-02-26T10:17:10;100066.94;;;6.55;100.00
9421;BME280;4749;51.398;5.466;2024-02-26T10:19:38;100064.38;;;6.56;100.00
9421;BME280;4749;51.398;5.466;2024-02-26T10:22:06;100063.50;;;6.59;100.00
9421;BME280;4749;51.398;5.466;2024-02-26T10:24:33;100079.19;;;6.59;100.00
9421;BME280;4749;51.398;5.466;2024-02-26T10:27:02;100072.22;;;6.58;100.00
9421;BME280;4749;51.398;5.466;2024-02-26T10:29:31;100093.97;;;6.60;100.00
9421;BME280;4749;51.398;5.466;2024-02-26T10:31:58;100085.28;;;6.62;100.00
9421;BME280;4749;51.398;5.466;2024-02-26T10:34:26;100092.28;;;6.65;100.00
9421;BME280;4749;51.398;5.466;2024-02-26T10:36:55;100092.28;;;6.68;100.00
9421;BME280;4749;51.398;5.466;2024-02-26T10:39:22;100094.91;;;6.68;100.00
9421;BME280;4749;51.398;5.466;2024-02-26T10:41:50;100100.97;;;6.64;100.00
9421;BME280;4749;51.398;5.466;2024-02-26T10:44:17;100107.03;;;6.60;100.00
9421;BME280;4749;51.398;5.466;2024-02-26T10:46:47;100113.13;;;6.59;100.00
9421;BME280;4749;51.398;5.466;2024-02-26T10:49:18;100116.63;;;6.61;100.00
9421;BME280;4749;51.398;5.466;2024-02-26T10:51:55;100120.09;;;6.61;100.00
9421;BME280;4749;51.398;5.466;2024-02-26T10:54:26;100130.56;;;6.61;100.00
9421;BME280;4749;51.398;5.466;2024-02-26T10:56:57;100128.81;;;6.60;100.00
9421;BME280;4749;51.398;5.466;2024-02-26T10:59:27;100133.16;;;6.61;100.00
9421;BME280;4749;51.398;5.466;2024-02-26T11:01:56;100127.06;;;6.61;100.00
9421;BME280;4749;51.398;5.466;2024-02-26T11:04:25;100127.06;;;6.59;100.00
9421;BME280;4749;51.398;5.466;2024-02-26T11:06:56;100159.22;;;6.55;100.00
9421;BME280;4749;51.398;5.466;2024-02-26T11:09:24;100140.09;;;6.56;100.00
9421;BME280;4749;51.398;5.466;2024-02-26T11:11:52;100147.94;;;6.58;100.00
9421;BME280;4749;51.398;5.466;2024-02-26T11:14:22;100142.72;;;6.56;100.00
9421;BME280;4749;51.398;5.466;2024-02-26T11:16:54;100152.25;;;6.54;100.00
9421;BME280;4749;51.398;5.466;2024-02-26T11:19:25;100167.94;;;6.56;100.00
9421;BME280;4749;51.398;5.466;2024-02-26T11:21:53;100158.41;;;6.59;100.00
9421;BME280;4749;51.398;5.466;2024-02-26T11:24:20;100157.53;;;6.60;100.00
9421;BME280;4749;51.398;5.466;2024-02-26T11:26:55;100163.63;;;6.61;100.00
9421;BME280;4749;51.398;5.466;2024-02-26T11:29:44;100164.50;;;6.63;100.00
9421;BME280;4749;51.398;5.466;2024-02-26T11:32:14;100169.72;;;6.60;100.00
9421;BME280;4749;51.398;5.466;2024-02-26T11:34:42;100178.38;;;6.56;100.00
9421;BME280;4749;51.398;5.466;2024-02-26T11:37:14;100169.66;;;6.55;100.00
9421;BME280;4749;51.398;5.466;2024-02-26T11:39:42;100179.25;;;6.55;100.00
9421;BME280;4749;51.398;5.466;2024-02-26T11:42:16;100177.50;;;6.55;100.00
9421;BME280;4749;51.398;5.466;2024-02-26T11:44:43;100187.13;;;6.56;100.00
9421;BME280;4749;51.398;5.466;2024-02-26T11:49:45;100185.34;;;6.55;100.00
9421;BME280;4749;51.398;5.466;2024-02-26T11:52:14;100175.75;;;6.54;100.00
9421;BME280;4749;51.398;5.466;2024-02-26T11:54:53;100178.38;;;6.54;100.00
9421;BME280;4749;51.398;5.466;2024-02-26T12:00:14;100194.09;;;6.60;100.00
9421;BME280;4749;51.398;5.466;2024-02-26T12:02:50;100195.84;;;6.61;100.00
9421;BME280;4749;51.398;5.466;2024-02-26T12:05:25;100197.56;;;6.59;100.00
9421;BME280;4749;51.398;5.466;2024-02-26T12:10:27;100194.09;;;6.60;100.00
9421;BME280;4749;51.398;5.466;2024-02-26T12:13:00;100201.06;;;6.61;100.00
9421;BME280;4749;51.398;5.466;2024-02-26T12:15:33;100211.53;;;6.61;100.00
9421;BME280;4749;51.398;5.466;2024-02-26T12:18:03;100208.03;;;6.58;100.00
9421;BME280;4749;51.398;5.466;2024-02-26T12:20:31;100213.25;;;6.56;100.00
9421;BME280;4749;51.398;5.466;2024-02-26T12:22:58;100215.81;;;6.55;100.00
9421;BME280;4749;51.398;5.466;2024-02-26T12:25:28;100220.22;;;6.57;100.00
9421;BME280;4749;51.398;5.466;2024-02-26T12:27:56;100211.53;;;6.61;100.00
9421;BME280;4749;51.398;5.466;2024-02-26T12:30:24;100223.75;;;6.65;100.00
9421;BME280;4749;51.398;5.466;2024-02-26T12:32:58;100224.63;;;6.67;100.00
9421;BME280;4749;51.398;5.466;2024-02-26T12:35:28;100233.34;;;6.68;100.00
9421;BME280;4749;51.398;5.466;2024-02-26T12:37:55;100242.06;;;6.71;100.00
9421;BME280;4749;51.398;5.466;2024-02-26T12:40:23;100229.94;;;6.76;100.00
9421;BME280;4749;51.398;5.466;2024-02-26T12:42:50;100239.53;;;6.77;100.00
9421;BME280;4749;51.398;5.466;2024-02-26T12:45:20;100233.44;;;6.80;100.00
9421;BME280;4749;51.398;5.466;2024-02-26T12:47:47;100243.06;;;6.81;100.00
9421;BME280;4749;51.398;5.466;2024-02-26T12:50:17;100250.03;;;6.84;100.00
9421;BME280;4749;51.398;5.466;2024-02-26T12:52:46;100248.31;;;6.89;100.00
9421;BME280;4749;51.398;5.466;2024-02-26T12:55:19;100255.28;;;6.88;100.00
9421;BME280;4749;51.398;5.466;2024-02-26T12:57:47;100248.31;;;6.89;100.00
9421;BME280;4749;51.398;5.466;2024-02-26T13:00:24;100259.69;;;6.91;100.00
9421;BME280;4749;51.398;5.466;2024-02-26T13:02:55;100274.50;;;6.90;100.00
9421;BME280;4749;51.398;5.466;2024-02-26T13:05:24;100277.94;;;6.88;100.00
9421;BME280;4749;51.398;5.466;2024-02-26T13:07:51;100273.56;;;6.84;100.00
9421;BME280;4749;51.398;5.466;2024-02-26T13:10:20;100294.41;;;6.81;100.00
9421;BME280;4749;51.398;5.466;2024-02-26T13:12:49;100282.28;;;6.86;100.00
9421;BME280;4749;51.398;5.466;2024-02-26T13:15:21;100294.47;;;6.88;100.00
9421;BME280;4749;51.398;5.466;2024-02-26T13:17:49;100297.06;;;6.82;100.00
9421;BME280;4749;51.398;5.466;2024-02-26T13:20:28;100293.59;;;6.86;100.00
9421;BME280;4749;51.398;5.466;2024-02-26T13:23:05;100300.56;;;6.89;100.00
9421;BME280;4749;51.398;5.466;2024-02-26T13:25:34;100316.22;;;6.81;100.00
9421;BME280;4749;51.398;5.466;2024-02-26T13:28:16;100318.81;;;6.81;100.00
9421;BME280;4749;51.398;5.466;2024-02-26T13:30:55;100317.97;;;6.87;100.00
9421;BME280;4749;51.398;5.466;2024-02-26T13:33:29;100327.56;;;6.88;100.00